sensor_id;sensor_type;location;lat;lon;timestamp;P1;durP1;ratioP1;P2;durP2;ratioP2
73150;SDS011;61354;50.758;6.106;2023-03-20T00:00:08;14.80;;;7.35;;
73150;SDS011;61354;50.758;6.106;2023-03-20T00:02:40;12.65;;;6.72;;
73150;SDS011;61354;50.758;6.106;2023-03-20T00:05:16;13.15;;;7.30;;
73150;SDS011;61354;50.758;6.106;2023-03-20T00:07:44;12.23;;;6.05;;
73150;SDS011;61354;50.758;6.106;2023-03-20T00:10:10;12.73;;;6.03;;
73150;SDS011;61354;50.758;6.106;2023-03-20T00:12:36;14.32;;;7.25;;
73150;SDS011;61354;50.758;6.106;2023-03-20T00:15:02;13.30;;;6.00;;
73150;SDS011;61354;50.758;6.106;2023-03-20T00:17:30;13.32;;;7.13;;
73150;SDS011;61354;50.758;6.106;2023-03-20T00:19:56;14.77;;;7.18;;
73150;SDS011;61354;50.758;6.106;2023-03-20T00:22:22;13.68;;;7.15;;
73150;SDS011;61354;50.758;6.106;2023-03-20T00:24:47;11.75;;;6.78;;
73150;SDS011;61354;50.758;6.106;2023-03-20T00:27:13;15.48;;;6.68;;
73150;SDS011;61354;50.758;6.106;2023-03-20T00:29:40;15.75;;;8.35;;
73150;SDS011;61354;50.758;6.106;2023-03-20T00:32:13;13.20;;;6.85;;
73150;SDS011;61354;50.758;6.106;2023-03-20T00:34:39;14.60;;;6.82;;
73150;SDS011;61354;50.758;6.106;2023-03-20T00:37:05;12.57;;;6.70;;
73150;SDS011;61354;50.758;6.106;2023-03-20T00:39:31;12.43;;;5.85;;
73150;SDS011;61354;50.758;6.106;2023-03-20T00:41:57;12.90;;;6.60;;
73150;SDS011;61354;50.758;6.106;2023-03-20T00:44:33;13.55;;;6.10;;
73150;SDS011;61354;50.758;6.106;2023-03-20T00:47:02;14.05;;;6.63;;
73150;SDS011;61354;50.758;6.106;2023-03-20T00:49:31;11.07;;;5.90;;
73150;SDS011;61354;50.758;6.106;2023-03-20T00:51:58;9.82;;;5.22;;
73150;SDS011;61354;50.758;6.106;2023-03-20T00:54:26;11.93;;;6.32;;
73150;SDS011;61354;50.758;6.106;2023-03-20T00:56:56;12.30;;;6.47;;
73150;SDS011;61354;50.758;6.106;2023-03-20T00:59:27;11.65;;;5.95;;
73150;SDS011;61354;50.758;6.106;2023-03-20T01:01:58;12.10;;;6.50;;
73150;SDS011;61354;50.758;6.106;2023-03-20T01:04:27;10.82;;;5.47;;
73150;SDS011;61354;50.758;6.106;2023-03-20T01:06:59;12.15;;;5.82;;
73150;SDS011;61354;50.758;6.106;2023-03-20T01:09:25;12.90;;;5.68;;
73150;SDS011;61354;50.758;6.106;2023-03-20T01:11:51;11.43;;;5.50;;
73150;SDS011;61354;50.758;6.106;2023-03-20T01:14:17;11.68;;;5.63;;
73150;SDS011;61354;50.758;6.106;2023-03-20T01:16:42;9.85;;;4.60;;
73150;SDS011;61354;50.758;6.106;2023-03-20T01:19:11;9.57;;;4.88;;
73150;SDS011;61354;50.758;6.106;2023-03-20T01:21:38;8.65;;;5.07;;
73150;SDS011;61354;50.758;6.106;2023-03-20T01:24:04;10.35;;;5.65;;
73150;SDS011;61354;50.758;6.106;2023-03-20T01:26:31;8.85;;;4.63;;
73150;SDS011;61354;50.758;6.106;2023-03-20T01:29:00;10.30;;;4.95;;
73150;SDS011;61354;50.758;6.106;2023-03-20T01:31:25;12.55;;;5.10;;
73150;SDS011;61354;50.758;6.106;2023-03-20T01:33:51;9.65;;;5.50;;
73150;SDS011;61354;50.758;6.106;2023-03-20T01:36:18;10.57;;;5.30;;
73150;SDS011;61354;50.758;6.106;2023-03-20T01:38:47;10.57;;;5.32;;
73150;SDS011;61354;50.758;6.106;2023-03-20T01:41:18;11.30;;;5.18;;
73150;SDS011;61354;50.758;6.106;2023-03-20T01:43:44;10.15;;;5.55;;
73150;SDS011;61354;50.758;6.106;2023-03-20T01:51:14;9.60;;;5.13;;
73150;SDS011;61354;50.758;6.106;2023-03-20T01:53:44;9.50;;;4.93;;
73150;SDS011;61354;50.758;6.106;2023-03-20T01:56:13;11.90;;;5.75;;
73150;SDS011;61354;50.758;6.106;2023-03-20T02:01:09;10.10;;;5.20;;
73150;SDS011;61354;50.758;6.106;2023-03-20T02:03:38;9.23;;;5.15;;
73150;SDS011;61354;50.758;6.106;2023-03-20T02:06:07;10.77;;;5.40;;
73150;SDS011;61354;50.758;6.106;2023-03-20T02:08:35;10.05;;;5.40;;
73150;SDS011;61354;50.758;6.106;2023-03-20T02:11:04;11.65;;;5.43;;
73150;SDS011;61354;50.758;6.106;2023-03-20T02:13:30;10.80;;;5.60;;
73150;SDS011;61354;50.758;6.106;2023-03-20T02:16:02;11.75;;;5.65;;
73150;SDS011;61354;50.758;6.106;2023-03-20T02:18:28;11.05;;;4.97;;
73150;SDS011;61354;50.758;6.106;2023-03-20T02:29:18;10.55;;;4.35;;
73150;SDS011;61354;50.758;6.106;2023-03-20T02:42:38;9.93;;;5.10;;
73150;SDS011;61354;50.758;6.106;2023-03-20T02:48:00;10.30;;;5.07;;
73150;SDS011;61354;50.758;6.106;2023-03-20T02:50:35;11.43;;;5.75;;
73150;SDS011;61354;50.758;6.106;2023-03-20T02:55:47;9.68;;;4.90;;
73150;SDS011;61354;50.758;6.106;2023-03-20T02:58:14;11.23;;;5.63;;
73150;SDS011;61354;50.758;6.106;2023-03-20T03:03:37;10.02;;;5.53;;
73150;SDS011;61354;50.758;6.106;2023-03-20T03:08:46;11.65;;;5.78;;
73150;SDS011;61354;50.758;6.106;2023-03-20T03:11:16;10.70;;;6.32;;
73150;SDS011;61354;50.758;6.106;2023-03-20T03:13:44;11.80;;;5.30;;
73150;SDS011;61354;50.758;6.106;2023-03-20T03:16:21;11.75;;;5.75;;
73150;SDS011;61354;50.758;6.106;2023-03-20T03:18:54;11.18;;;5.75;;
73150;SDS011;61354;50.758;6.106;2023-03-20T03:21:26;10.02;;;5.63;;
73150;SDS011;61354;50.758;6.106;2023-03-20T03:23:54;11.90;;;5.93;;
73150;SDS011;61354;50.758;6.106;2023-03-20T03:26:37;12.38;;;5.72;;
73150;SDS011;61354;50.758;6.106;2023-03-20T03:29:06;11.88;;;5.70;;
73150;SDS011;61354;50.758;6.106;2023-03-20T03:31:37;9.60;;;5.20;;
73150;SDS011;61354;50.758;6.106;2023-03-20T03:34:02;13.57;;;6.18;;
73150;SDS011;61354;50.758;6.106;2023-03-20T03:36:35;11.48;;;5.82;;
73150;SDS011;61354;50.758;6.106;2023-03-20T03:41:39;11.13;;;5.65;;
73150;SDS011;61354;50.758;6.106;2023-03-20T03:44:26;11.20;;;5.47;;
73150;SDS011;61354;50.758;6.106;2023-03-20T03:49:34;11.13;;;5.40;;
73150;SDS011;61354;50.758;6.106;2023-03-20T03:52:04;13.10;;;5.72;;
73150;SDS011;61354;50.758;6.106;2023-03-20T03:54:36;10.68;;;5.90;;
73150;SDS011;61354;50.758;6.106;2023-03-20T03:57:07;12.93;;;6.60;;
73150;SDS011;61354;50.758;6.106;2023-03-20T03:59:39;12.57;;;6.45;;
73150;SDS011;61354;50.758;6.106;2023-03-20T04:02:07;15.27;;;6.57;;
73150;SDS011;61354;50.758;6.106;2023-03-20T04:04:34;11.75;;;5.88;;
73150;SDS011;61354;50.758;6.106;2023-03-20T04:07:03;12.40;;;6.50;;
73150;SDS011;61354;50.758;6.106;2023-03-20T04:09:29;14.38;;;6.63;;
73150;SDS011;61354;50.758;6.106;2023-03-20T04:11:55;11.52;;;6.28;;
73150;SDS011;61354;50.758;6.106;2023-03-20T04:14:20;12.10;;;5.75;;
73150;SDS011;61354;50.758;6.106;2023-03-20T04:16:46;14.57;;;6.30;;
73150;SDS011;61354;50.758;6.106;2023-03-20T04:19:12;14.90;;;6.88;;
73150;SDS011;61354;50.758;6.106;2023-03-20T04:21:37;13.32;;;7.63;;
73150;SDS011;61354;50.758;6.106;2023-03-20T04:24:03;13.57;;;6.88;;
73150;SDS011;61354;50.758;6.106;2023-03-20T04:26:29;12.35;;;6.90;;
73150;SDS011;61354;50.758;6.106;2023-03-20T04:28:55;12.20;;;6.75;;
73150;SDS011;61354;50.758;6.106;2023-03-20T04:31:20;13.05;;;6.72;;
73150;SDS011;61354;50.758;6.106;2023-03-20T04:33:46;14.80;;;6.78;;
73150;SDS011;61354;50.758;6.106;2023-03-20T04:36:12;11.98;;;6.25;;
73150;SDS011;61354;50.758;6.106;2023-03-20T04:38:38;12.73;;;7.00;;
73150;SDS011;61354;50.758;6.106;2023-03-20T04:41:04;12.60;;;6.45;;
73150;SDS011;61354;50.758;6.106;2023-03-20T04:43:30;12.73;;;6.32;;
73150;SDS011;61354;50.758;6.106;2023-03-20T04:45:56;11.73;;;6.57;;
73150;SDS011;61354;50.758;6.106;2023-03-20T04:48:21;13.77;;;6.93;;
73150;SDS011;61354;50.758;6.106;2023-03-20T04:50:47;12.60;;;5.82;;
73150;SDS011;61354;50.758;6.106;2023-03-20T04:53:14;15.07;;;7.05;;
73150;SDS011;61354;50.758;6.106;2023-03-20T04:55:40;11.93;;;6.18;;
73150;SDS011;61354;50.758;6.106;2023-03-20T04:58:06;13.80;;;6.68;;
73150;SDS011;61354;50.758;6.106;2023-03-20T05:00:31;11.43;;;6.15;;
73150;SDS011;61354;50.758;6.106;2023-03-20T05:02:57;10.57;;;5.95;;
73150;SDS011;61354;50.758;6.106;2023-03-20T05:05:23;12.82;;;5.90;;
73150;SDS011;61354;50.758;6.106;2023-03-20T05:07:49;12.68;;;5.65;;
73150;SDS011;61354;50.758;6.106;2023-03-20T05:10:16;9.80;;;5.50;;
73150;SDS011;61354;50.758;6.106;2023-03-20T05:12:42;9.63;;;5.25;;
73150;SDS011;61354;50.758;6.106;2023-03-20T05:15:07;9.20;;;4.95;;
73150;SDS011;61354;50.758;6.106;2023-03-20T05:17:33;12.43;;;6.18;;
73150;SDS011;61354;50.758;6.106;2023-03-20T05:19:59;9.27;;;4.82;;
73150;SDS011;61354;50.758;6.106;2023-03-20T05:22:24;10.05;;;5.50;;
73150;SDS011;61354;50.758;6.106;2023-03-20T05:24:50;10.95;;;6.00;;
73150;SDS011;61354;50.758;6.106;2023-03-20T05:27:16;11.65;;;4.90;;
73150;SDS011;61354;50.758;6.106;2023-03-20T05:29:41;9.13;;;4.93;;
73150;SDS011;61354;50.758;6.106;2023-03-20T05:32:07;8.52;;;4.45;;
73150;SDS011;61354;50.758;6.106;2023-03-20T05:34:33;11.27;;;5.05;;
73150;SDS011;61354;50.758;6.106;2023-03-20T05:36:58;10.45;;;4.78;;
73150;SDS011;61354;50.758;6.106;2023-03-20T05:39:24;8.77;;;4.07;;
73150;SDS011;61354;50.758;6.106;2023-03-20T05:41:50;11.25;;;4.60;;
73150;SDS011;61354;50.758;6.106;2023-03-20T05:44:15;8.77;;;4.70;;
73150;SDS011;61354;50.758;6.106;2023-03-20T05:49:37;10.13;;;4.72;;
73150;SDS011;61354;50.758;6.106;2023-03-20T05:52:02;10.10;;;4.60;;
73150;SDS011;61354;50.758;6.106;2023-03-20T05:54:28;8.65;;;4.25;;
73150;SDS011;61354;50.758;6.106;2023-03-20T05:56:54;7.85;;;3.75;;
73150;SDS011;61354;50.758;6.106;2023-03-20T05:59:20;9.18;;;4.25;;
73150;SDS011;61354;50.758;6.106;2023-03-20T06:01:45;8.32;;;4.13;;
73150;SDS011;61354;50.758;6.106;2023-03-20T06:04:11;7.75;;;4.22;;
73150;SDS011;61354;50.758;6.106;2023-03-20T06:06:37;11.40;;;5.00;;
73150;SDS011;61354;50.758;6.106;2023-03-20T06:09:03;9.93;;;4.45;;
73150;SDS011;61354;50.758;6.106;2023-03-20T06:11:29;10.93;;;4.80;;
73150;SDS011;61354;50.758;6.106;2023-03-20T06:13:56;9.82;;;4.55;;
73150;SDS011;61354;50.758;6.106;2023-03-20T06:16:22;9.32;;;4.28;;
73150;SDS011;61354;50.758;6.106;2023-03-20T06:18:48;9.63;;;4.28;;
73150;SDS011;61354;50.758;6.106;2023-03-20T06:21:13;9.93;;;4.47;;
73150;SDS011;61354;50.758;6.106;2023-03-20T06:23:39;7.93;;;4.28;;
73150;SDS011;61354;50.758;6.106;2023-03-20T06:26:05;8.40;;;3.85;;
73150;SDS011;61354;50.758;6.106;2023-03-20T06:28:31;9.57;;;4.43;;
73150;SDS011;61354;50.758;6.106;2023-03-20T06:30:56;11.15;;;4.72;;
73150;SDS011;61354;50.758;6.106;2023-03-20T06:33:22;7.80;;;3.85;;
73150;SDS011;61354;50.758;6.106;2023-03-20T06:35:48;9.50;;;4.65;;
73150;SDS011;61354;50.758;6.106;2023-03-20T06:38:14;8.80;;;4.60;;
73150;SDS011;61354;50.758;6.106;2023-03-20T06:40:40;8.05;;;4.47;;
73150;SDS011;61354;50.758;6.106;2023-03-20T06:43:07;8.80;;;4.40;;
73150;SDS011;61354;50.758;6.106;2023-03-20T06:45:35;9.68;;;4.07;;
73150;SDS011;61354;50.758;6.106;2023-03-20T06:48:03;10.32;;;4.30;;
73150;SDS011;61354;50.758;6.106;2023-03-20T06:50:30;11.07;;;4.93;;
73150;SDS011;61354;50.758;6.106;2023-03-20T06:52:56;8.95;;;4.25;;
73150;SDS011;61354;50.758;6.106;2023-03-20T06:55:22;9.98;;;4.22;;
73150;SDS011;61354;50.758;6.106;2023-03-20T06:57:47;9.68;;;5.07;;
73150;SDS011;61354;50.758;6.106;2023-03-20T07:00:13;10.77;;;5.05;;
73150;SDS011;61354;50.758;6.106;2023-03-20T07:02:39;8.63;;;4.63;;
73150;SDS011;61354;50.758;6.106;2023-03-20T07:05:05;9.65;;;5.07;;
73150;SDS011;61354;50.758;6.106;2023-03-20T07:07:31;11.13;;;5.20;;
73150;SDS011;61354;50.758;6.106;2023-03-20T07:09:56;10.02;;;4.63;;
73150;SDS011;61354;50.758;6.106;2023-03-20T07:12:22;11.48;;;4.93;;
73150;SDS011;61354;50.758;6.106;2023-03-20T07:14:52;9.95;;;4.78;;
73150;SDS011;61354;50.758;6.106;2023-03-20T07:17:18;10.30;;;5.07;;
73150;SDS011;61354;50.758;6.106;2023-03-20T07:19:44;11.07;;;4.97;;
73150;SDS011;61354;50.758;6.106;2023-03-20T07:22:13;12.55;;;5.32;;
73150;SDS011;61354;50.758;6.106;2023-03-20T07:24:46;12.52;;;6.22;;
73150;SDS011;61354;50.758;6.106;2023-03-20T07:27:15;10.98;;;5.80;;
73150;SDS011;61354;50.758;6.106;2023-03-20T07:29:42;14.07;;;5.72;;
73150;SDS011;61354;50.758;6.106;2023-03-20T07:32:08;12.57;;;6.05;;
73150;SDS011;61354;50.758;6.106;2023-03-20T07:34:34;14.27;;;6.78;;
73150;SDS011;61354;50.758;6.106;2023-03-20T07:36:59;12.90;;;5.80;;
73150;SDS011;61354;50.758;6.106;2023-03-20T07:39:25;14.02;;;6.20;;
73150;SDS011;61354;50.758;6.106;2023-03-20T07:41:51;10.52;;;5.20;;
73150;SDS011;61354;50.758;6.106;2023-03-20T07:44:17;14.50;;;5.97;;
73150;SDS011;61354;50.758;6.106;2023-03-20T07:46:43;11.15;;;5.60;;
73150;SDS011;61354;50.758;6.106;2023-03-20T07:49:20;12.20;;;5.93;;
73150;SDS011;61354;50.758;6.106;2023-03-20T07:51:46;14.32;;;5.68;;
73150;SDS011;61354;50.758;6.106;2023-03-20T07:54:15;13.15;;;6.38;;
73150;SDS011;61354;50.758;6.106;2023-03-20T07:56:41;13.98;;;6.18;;
73150;SDS011;61354;50.758;6.106;2023-03-20T07:59:07;15.07;;;6.78;;
73150;SDS011;61354;50.758;6.106;2023-03-20T08:01:33;14.23;;;6.47;;
73150;SDS011;61354;50.758;6.106;2023-03-20T08:04:01;19.23;;;6.05;;
73150;SDS011;61354;50.758;6.106;2023-03-20T08:06:27;13.32;;;6.50;;
73150;SDS011;61354;50.758;6.106;2023-03-20T08:08:52;12.73;;;6.47;;
73150;SDS011;61354;50.758;6.106;2023-03-20T08:11:18;12.82;;;6.88;;
73150;SDS011;61354;50.758;6.106;2023-03-20T08:13:44;13.50;;;6.45;;
73150;SDS011;61354;50.758;6.106;2023-03-20T08:16:10;13.60;;;6.40;;
73150;SDS011;61354;50.758;6.106;2023-03-20T08:18:36;13.40;;;6.10;;
73150;SDS011;61354;50.758;6.106;2023-03-20T08:21:01;12.02;;;5.28;;
73150;SDS011;61354;50.758;6.106;2023-03-20T08:23:27;13.38;;;5.78;;
73150;SDS011;61354;50.758;6.106;2023-03-20T08:25:53;11.95;;;6.22;;
73150;SDS011;61354;50.758;6.106;2023-03-20T08:28:19;11.68;;;6.13;;
73150;SDS011;61354;50.758;6.106;2023-03-20T08:30:45;11.73;;;5.75;;
73150;SDS011;61354;50.758;6.106;2023-03-20T08:33:11;10.98;;;4.82;;
73150;SDS011;61354;50.758;6.106;2023-03-20T08:35:38;9.35;;;4.72;;
73150;SDS011;61354;50.758;6.106;2023-03-20T08:38:04;10.02;;;4.78;;
73150;SDS011;61354;50.758;6.106;2023-03-20T08:40:30;9.85;;;4.25;;
73150;SDS011;61354;50.758;6.106;2023-03-20T08:42:56;8.85;;;3.58;;
73150;SDS011;61354;50.758;6.106;2023-03-20T08:45:25;6.40;;;3.38;;
73150;SDS011;61354;50.758;6.106;2023-03-20T08:47:51;9.48;;;3.17;;
73150;SDS011;61354;50.758;6.106;2023-03-20T08:50:17;7.80;;;3.42;;
73150;SDS011;61354;50.758;6.106;2023-03-20T08:52:43;7.78;;;3.55;;
73150;SDS011;61354;50.758;6.106;2023-03-20T08:55:11;6.90;;;2.80;;
73150;SDS011;61354;50.758;6.106;2023-03-20T08:57:38;7.45;;;3.47;;
73150;SDS011;61354;50.758;6.106;2023-03-20T09:00:05;7.15;;;3.38;;
73150;SDS011;61354;50.758;6.106;2023-03-20T09:02:31;9.40;;;3.15;;
73150;SDS011;61354;50.758;6.106;2023-03-20T09:04:57;8.55;;;3.20;;
73150;SDS011;61354;50.758;6.106;2023-03-20T09:07:26;9.13;;;3.72;;
73150;SDS011;61354;50.758;6.106;2023-03-20T09:09:51;9.25;;;3.55;;
73150;SDS011;61354;50.758;6.106;2023-03-20T09:12:17;8.52;;;3.33;;
73150;SDS011;61354;50.758;6.106;2023-03-20T09:14:43;8.95;;;3.55;;
73150;SDS011;61354;50.758;6.106;2023-03-20T09:17:08;7.60;;;2.63;;
73150;SDS011;61354;50.758;6.106;2023-03-20T09:19:34;6.10;;;2.83;;
73150;SDS011;61354;50.758;6.106;2023-03-20T09:22:02;7.32;;;3.42;;
73150;SDS011;61354;50.758;6.106;2023-03-20T09:24:27;8.10;;;3.30;;
73150;SDS011;61354;50.758;6.106;2023-03-20T09:26:53;7.68;;;4.53;;
73150;SDS011;61354;50.758;6.106;2023-03-20T09:29:19;8.40;;;3.22;;
73150;SDS011;61354;50.758;6.106;2023-03-20T09:31:45;7.85;;;3.00;;
73150;SDS011;61354;50.758;6.106;2023-03-20T09:34:10;9.52;;;3.40;;
73150;SDS011;61354;50.758;6.106;2023-03-20T09:36:36;7.28;;;3.13;;
73150;SDS011;61354;50.758;6.106;2023-03-20T09:39:02;7.95;;;3.47;;
73150;SDS011;61354;50.758;6.106;2023-03-20T09:41:28;9.35;;;3.85;;
73150;SDS011;61354;50.758;6.106;2023-03-20T09:46:46;6.57;;;3.28;;
73150;SDS011;61354;50.758;6.106;2023-03-20T09:57:19;7.53;;;2.70;;
73150;SDS011;61354;50.758;6.106;2023-03-20T09:59:59;7.35;;;3.13;;
73150;SDS011;61354;50.758;6.106;2023-03-20T10:08:20;4.30;;;2.92;;
73150;SDS011;61354;50.758;6.106;2023-03-20T10:13:57;6.20;;;2.55;;
73150;SDS011;61354;50.758;6.106;2023-03-20T10:16:38;5.38;;;2.58;;
73150;SDS011;61354;50.758;6.106;2023-03-20T10:21:46;5.70;;;2.67;;
73150;SDS011;61354;50.758;6.106;2023-03-20T10:27:25;4.50;;;2.13;;
73150;SDS011;61354;50.758;6.106;2023-03-20T10:33:03;5.45;;;2.83;;
73150;SDS011;61354;50.758;6.106;2023-03-20T10:35:43;5.05;;;2.45;;
73150;SDS011;61354;50.758;6.106;2023-03-20T10:38:21;3.78;;;2.13;;
73150;SDS011;61354;50.758;6.106;2023-03-20T10:41:09;4.60;;;2.50;;
73150;SDS011;61354;50.758;6.106;2023-03-20T10:43:42;5.55;;;2.00;;
73150;SDS011;61354;50.758;6.106;2023-03-20T10:46:12;4.22;;;1.55;;
73150;SDS011;61354;50.758;6.106;2023-03-20T10:48:46;5.43;;;2.70;;
73150;SDS011;61354;50.758;6.106;2023-03-20T10:51:19;5.15;;;2.33;;
73150;SDS011;61354;50.758;6.106;2023-03-20T10:53:56;7.47;;;3.08;;
73150;SDS011;61354;50.758;6.106;2023-03-20T10:58:53;4.03;;;1.95;;
73150;SDS011;61354;50.758;6.106;2023-03-20T11:01:23;4.53;;;2.05;;
73150;SDS011;61354;50.758;6.106;2023-03-20T11:03:49;3.97;;;2.13;;
73150;SDS011;61354;50.758;6.106;2023-03-20T11:06:19;6.75;;;1.98;;
73150;SDS011;61354;50.758;6.106;2023-03-20T11:11:23;4.85;;;1.65;;
73150;SDS011;61354;50.758;6.106;2023-03-20T11:13:54;6.78;;;2.17;;
73150;SDS011;61354;50.758;6.106;2023-03-20T11:18:47;7.78;;;2.20;;
73150;SDS011;61354;50.758;6.106;2023-03-20T11:23:48;6.35;;;2.65;;
73150;SDS011;61354;50.758;6.106;2023-03-20T11:26:15;6.93;;;2.50;;
73150;SDS011;61354;50.758;6.106;2023-03-20T11:28:53;3.70;;;1.80;;
73150;SDS011;61354;50.758;6.106;2023-03-20T11:34:10;4.80;;;2.58;;
73150;SDS011;61354;50.758;6.106;2023-03-20T11:36:39;6.55;;;2.38;;
73150;SDS011;61354;50.758;6.106;2023-03-20T11:39:26;6.18;;;2.05;;
73150;SDS011;61354;50.758;6.106;2023-03-20T11:41:54;3.97;;;2.17;;
73150;SDS011;61354;50.758;6.106;2023-03-20T11:47:02;5.10;;;2.30;;
73150;SDS011;61354;50.758;6.106;2023-03-20T11:49:28;7.00;;;2.35;;
73150;SDS011;61354;50.758;6.106;2023-03-20T11:51:58;5.63;;;2.50;;
73150;SDS011;61354;50.758;6.106;2023-03-20T11:54:35;5.10;;;2.00;;
73150;SDS011;61354;50.758;6.106;2023-03-20T11:57:10;6.88;;;2.08;;
73150;SDS011;61354;50.758;6.106;2023-03-20T11:59:55;5.43;;;2.47;;
73150;SDS011;61354;50.758;6.106;2023-03-20T12:02:21;6.30;;;2.22;;
73150;SDS011;61354;50.758;6.106;2023-03-20T12:04:48;6.60;;;2.42;;
73150;SDS011;61354;50.758;6.106;2023-03-20T12:09:50;4.78;;;2.28;;
73150;SDS011;61354;50.758;6.106;2023-03-20T12:20:14;7.55;;;2.45;;
73150;SDS011;61354;50.758;6.106;2023-03-20T12:22:48;3.50;;;2.10;;
73150;SDS011;61354;50.758;6.106;2023-03-20T12:25:26;6.68;;;3.00;;
73150;SDS011;61354;50.758;6.106;2023-03-20T12:33:42;4.65;;;1.90;;
73150;SDS011;61354;50.758;6.106;2023-03-20T12:36:14;5.82;;;2.53;;
73150;SDS011;61354;50.758;6.106;2023-03-20T12:38:42;5.07;;;2.03;;
73150;SDS011;61354;50.758;6.106;2023-03-20T12:41:29;6.50;;;2.17;;
73150;SDS011;61354;50.758;6.106;2023-03-20T12:47:06;3.65;;;2.03;;
73150;SDS011;61354;50.758;6.106;2023-03-20T12:55:48;4.20;;;1.80;;
73150;SDS011;61354;50.758;6.106;2023-03-20T12:58:17;6.72;;;2.15;;
73150;SDS011;61354;50.758;6.106;2023-03-20T13:00:50;2.88;;;1.60;;
73150;SDS011;61354;50.758;6.106;2023-03-20T13:06:35;6.07;;;1.95;;
73150;SDS011;61354;50.758;6.106;2023-03-20T13:14:42;8.38;;;3.33;;
73150;SDS011;61354;50.758;6.106;2023-03-20T13:22:31;5.03;;;2.10;;
73150;SDS011;61354;50.758;6.106;2023-03-20T13:33:45;4.78;;;1.88;;
73150;SDS011;61354;50.758;6.106;2023-03-20T13:38:45;5.13;;;2.10;;
73150;SDS011;61354;50.758;6.106;2023-03-20T13:41:16;4.82;;;1.70;;
73150;SDS011;61354;50.758;6.106;2023-03-20T13:43:48;6.57;;;2.13;;
73150;SDS011;61354;50.758;6.106;2023-03-20T13:48:46;6.30;;;2.92;;
73150;SDS011;61354;50.758;6.106;2023-03-20T13:51:24;4.85;;;2.03;;
73150;SDS011;61354;50.758;6.106;2023-03-20T13:57:04;6.20;;;2.28;;
73150;SDS011;61354;50.758;6.106;2023-03-20T13:59:53;5.38;;;1.70;;
73150;SDS011;61354;50.758;6.106;2023-03-20T14:02:49;5.90;;;1.92;;
73150;SDS011;61354;50.758;6.106;2023-03-20T14:05:17;5.97;;;1.98;;
73150;SDS011;61354;50.758;6.106;2023-03-20T14:07:47;3.65;;;1.83;;
73150;SDS011;61354;50.758;6.106;2023-03-20T14:12:48;5.95;;;2.05;;
73150;SDS011;61354;50.758;6.106;2023-03-20T14:15:15;6.15;;;2.25;;
73150;SDS011;61354;50.758;6.106;2023-03-20T14:17:45;5.85;;;1.77;;
73150;SDS011;61354;50.758;6.106;2023-03-20T14:20:31;5.55;;;2.05;;
73150;SDS011;61354;50.758;6.106;2023-03-20T14:22:59;6.90;;;2.13;;
73150;SDS011;61354;50.758;6.106;2023-03-20T14:25:31;5.50;;;1.98;;
73150;SDS011;61354;50.758;6.106;2023-03-20T14:35:36;2.95;;;1.20;;
73150;SDS011;61354;50.758;6.106;2023-03-20T14:41:04;4.43;;;1.70;;
73150;SDS011;61354;50.758;6.106;2023-03-20T14:48:55;5.03;;;1.77;;
73150;SDS011;61354;50.758;6.106;2023-03-20T14:51:32;4.95;;;1.50;;
73150;SDS011;61354;50.758;6.106;2023-03-20T14:54:21;5.32;;;1.65;;
73150;SDS011;61354;50.758;6.106;2023-03-20T14:56:50;5.85;;;2.30;;
73150;SDS011;61354;50.758;6.106;2023-03-20T14:59:18;5.82;;;2.00;;
73150;SDS011;61354;50.758;6.106;2023-03-20T15:01:52;3.38;;;1.73;;
73150;SDS011;61354;50.758;6.106;2023-03-20T15:06:46;4.18;;;1.95;;
73150;SDS011;61354;50.758;6.106;2023-03-20T15:09:16;4.45;;;1.73;;
73150;SDS011;61354;50.758;6.106;2023-03-20T15:11:49;6.28;;;1.90;;
73150;SDS011;61354;50.758;6.106;2023-03-20T15:14:21;4.05;;;1.85;;
73150;SDS011;61354;50.758;6.106;2023-03-20T15:16:56;3.88;;;2.15;;
73150;SDS011;61354;50.758;6.106;2023-03-20T15:22:18;7.72;;;2.03;;
73150;SDS011;61354;50.758;6.106;2023-03-20T15:25:18;5.10;;;1.95;;
73150;SDS011;61354;50.758;6.106;2023-03-20T15:27:40;7.65;;;1.65;;
73150;SDS011;61354;50.758;6.106;2023-03-20T15:30:06;4.80;;;1.90;;
73150;SDS011;61354;50.758;6.106;2023-03-20T15:32:36;5.40;;;2.42;;
73150;SDS011;61354;50.758;6.106;2023-03-20T15:35:02;4.13;;;1.52;;
73150;SDS011;61354;50.758;6.106;2023-03-20T15:37:29;4.63;;;1.85;;
73150;SDS011;61354;50.758;6.106;2023-03-20T15:39:55;6.05;;;2.15;;
73150;SDS011;61354;50.758;6.106;2023-03-20T15:42:23;5.10;;;1.77;;
73150;SDS011;61354;50.758;6.106;2023-03-20T15:44:51;4.53;;;1.60;;
73150;SDS011;61354;50.758;6.106;2023-03-20T15:47:18;4.32;;;2.15;;
73150;SDS011;61354;50.758;6.106;2023-03-20T15:49:54;4.47;;;1.80;;
73150;SDS011;61354;50.758;6.106;2023-03-20T15:52:28;3.22;;;1.52;;
73150;SDS011;61354;50.758;6.106;2023-03-20T15:54:58;6.90;;;1.60;;
73150;SDS011;61354;50.758;6.106;2023-03-20T15:57:30;4.32;;;1.60;;
73150;SDS011;61354;50.758;6.106;2023-03-20T15:59:59;5.10;;;1.85;;
73150;SDS011;61354;50.758;6.106;2023-03-20T16:02:29;3.08;;;1.88;;
73150;SDS011;61354;50.758;6.106;2023-03-20T16:04:54;3.30;;;1.27;;
73150;SDS011;61354;50.758;6.106;2023-03-20T16:07:28;2.90;;;1.38;;
73150;SDS011;61354;50.758;6.106;2023-03-20T16:09:56;4.40;;;1.63;;
73150;SDS011;61354;50.758;6.106;2023-03-20T16:12:23;4.78;;;1.65;;
73150;SDS011;61354;50.758;6.106;2023-03-20T16:14:51;4.35;;;1.70;;
73150;SDS011;61354;50.758;6.106;2023-03-20T16:17:17;5.25;;;1.75;;
73150;SDS011;61354;50.758;6.106;2023-03-20T16:19:45;3.85;;;1.50;;
73150;SDS011;61354;50.758;6.106;2023-03-20T16:24:44;5.93;;;1.88;;
73150;SDS011;61354;50.758;6.106;2023-03-20T16:27:14;3.53;;;1.52;;
73150;SDS011;61354;50.758;6.106;2023-03-20T16:29:48;5.53;;;1.60;;
73150;SDS011;61354;50.758;6.106;2023-03-20T16:34:51;5.07;;;1.92;;
73150;SDS011;61354;50.758;6.106;2023-03-20T16:37:23;5.82;;;1.90;;
73150;SDS011;61354;50.758;6.106;2023-03-20T16:40:00;6.85;;;1.85;;
73150;SDS011;61354;50.758;6.106;2023-03-20T16:42:38;6.03;;;1.77;;
73150;SDS011;61354;50.758;6.106;2023-03-20T16:45:04;6.53;;;2.40;;
73150;SDS011;61354;50.758;6.106;2023-03-20T16:47:35;8.75;;;2.28;;
73150;SDS011;61354;50.758;6.106;2023-03-20T16:50:21;4.30;;;2.53;;
73150;SDS011;61354;50.758;6.106;2023-03-20T16:52:49;4.80;;;1.67;;
73150;SDS011;61354;50.758;6.106;2023-03-20T16:55:20;3.63;;;2.03;;
73150;SDS011;61354;50.758;6.106;2023-03-20T16:57:49;2.58;;;1.65;;
73150;SDS011;61354;50.758;6.106;2023-03-20T17:00:22;4.70;;;1.80;;
73150;SDS011;61354;50.758;6.106;2023-03-20T17:03:06;5.18;;;2.00;;
73150;SDS011;61354;50.758;6.106;2023-03-20T17:05:55;4.38;;;1.83;;
73150;SDS011;61354;50.758;6.106;2023-03-20T17:08:28;4.40;;;1.90;;
73150;SDS011;61354;50.758;6.106;2023-03-20T17:11:12;3.72;;;1.85;;
73150;SDS011;61354;50.758;6.106;2023-03-20T17:13:39;5.20;;;2.20;;
73150;SDS011;61354;50.758;6.106;2023-03-20T17:16:18;4.80;;;2.17;;
73150;SDS011;61354;50.758;6.106;2023-03-20T17:18:45;4.20;;;1.80;;
73150;SDS011;61354;50.758;6.106;2023-03-20T17:21:12;4.85;;;2.20;;
73150;SDS011;61354;50.758;6.106;2023-03-20T17:23:38;4.05;;;1.70;;
73150;SDS011;61354;50.758;6.106;2023-03-20T17:26:10;2.97;;;1.70;;
73150;SDS011;61354;50.758;6.106;2023-03-20T17:28:40;3.38;;;1.80;;
73150;SDS011;61354;50.758;6.106;2023-03-20T17:31:17;6.38;;;2.00;;
73150;SDS011;61354;50.758;6.106;2023-03-20T17:33:43;5.15;;;2.30;;
73150;SDS011;61354;50.758;6.106;2023-03-20T17:36:23;5.50;;;1.98;;
73150;SDS011;61354;50.758;6.106;2023-03-20T17:38:51;7.47;;;3.10;;
73150;SDS011;61354;50.758;6.106;2023-03-20T17:41:18;6.43;;;2.67;;
73150;SDS011;61354;50.758;6.106;2023-03-20T17:43:44;4.20;;;2.25;;
73150;SDS011;61354;50.758;6.106;2023-03-20T17:48:57;4.88;;;1.85;;
73150;SDS011;61354;50.758;6.106;2023-03-20T17:51:27;3.97;;;2.15;;